createdAt,value
2023-04-02T00:01:02.005Z,6.62
2023-04-02T00:03:43.914Z,6.67
2023-04-02T00:06:25.669Z,6.56
2023-04-02T00:08:52.310Z,6.56
2023-04-02T00:11:31.175Z,6.30
2023-04-02T00:14:01.564Z,6.31
2023-04-02T00:16:28.496Z,6.13
2023-04-02T00:19:01.470Z,5.99
2023-04-02T00:21:32.099Z,6.22
2023-04-02T00:24:03.085Z,6.35
2023-04-02T00:26:29.575Z,6.42
2023-04-02T00:28:56.156Z,6.47
2023-04-02T00:31:25.513Z,6.11
2023-04-02T00:33:52.925Z,6.50
2023-04-02T00:36:25.702Z,6.42
2023-04-02T00:38:53.850Z,6.41
2023-04-02T00:41:25.224Z,6.44
2023-04-02T00:43:52.741Z,6.34
2023-04-02T00:46:28.662Z,6.34
2023-04-02T00:49:02.773Z,6.33
2023-04-02T00:51:35.546Z,6.32
2023-04-02T00:54:05.440Z,6.29
2023-04-02T00:56:53.667Z,6.22
2023-04-02T00:59:35.962Z,6.27
2023-04-02T01:02:14.450Z,5.75
2023-04-02T01:04:41.491Z,6.21
2023-04-02T01:07:11.177Z,6.18
2023-04-02T01:10:12.708Z,6.21
2023-04-02T01:12:39.165Z,6.13
2023-04-02T01:15:54.948Z,6.13
2023-04-02T01:18:49.051Z,6.15
2023-04-02T01:21:18.632Z,5.99
2023-04-02T01:23:54.441Z,6.00
2023-04-02T01:26:47.989Z,5.77
2023-04-02T01:29:18.919Z,5.69
2023-04-02T01:31:47.296Z,5.74
2023-04-02T01:34:17.458Z,5.67
2023-04-02T01:37:02.781Z,6.04
2023-04-02T01:39:44.384Z,6.07
2023-04-02T01:42:39.243Z,5.65
2023-04-02T01:45:11.204Z,6.10
2023-04-02T01:47:38.826Z,5.69
2023-04-02T01:50:20.221Z,5.94
2023-04-02T01:52:49.539Z,6.02
2023-04-02T01:55:24.814Z,5.96
2023-04-02T01:57:54.227Z,6.05
2023-04-02T02:00:21.026Z,6.03
2023-04-02T02:02:49.874Z,5.97
2023-04-02T02:05:20.436Z,5.88
2023-04-02T02:07:47.285Z,5.83
2023-04-02T02:10:38.359Z,5.90
2023-04-02T02:13:04.955Z,5.59
2023-04-02T02:15:33.680Z,5.61
2023-04-02T02:18:06.024Z,5.81
2023-04-02T02:20:34.481Z,5.78
2023-04-02T02:23:01.922Z,5.80
2023-04-02T02:25:34.125Z,5.86
2023-04-02T02:28:09.955Z,5.70
2023-04-02T02:30:42.127Z,5.49
2023-04-02T02:33:14.102Z,5.35
2023-04-02T02:35:54.159Z,5.70
2023-04-02T02:38:26.994Z,5.66
2023-04-02T02:40:58.310Z,5.63
2023-04-02T02:43:26.400Z,5.58
2023-04-02T02:45:55.612Z,5.57
2023-04-02T02:48:34.091Z,5.66
2023-04-02T02:51:04.807Z,5.66
2023-04-02T02:53:31.451Z,5.56
2023-04-02T02:56:01.366Z,5.71
2023-04-02T02:58:31.994Z,5.70
2023-04-02T03:00:59.207Z,5.64
2023-04-02T03:03:31.921Z,5.59
2023-04-02T03:06:03.564Z,5.64
2023-04-02T03:08:44.031Z,5.50
2023-04-02T03:11:16.946Z,5.57
2023-04-02T03:13:48.901Z,5.52
2023-04-02T03:16:33.722Z,5.58
2023-04-02T03:19:49.968Z,5.44
2023-04-02T03:22:21.753Z,5.43
2023-04-02T03:25:03.909Z,5.44
2023-04-02T03:27:36.533Z,5.44
2023-04-02T03:30:25.372Z,5.21
2023-04-02T03:33:00.824Z,5.16
2023-04-02T03:35:32.451Z,5.41
2023-04-02T03:38:13.198Z,5.46
2023-04-02T03:40:50.981Z,5.34
2023-04-02T03:43:24.278Z,5.54
2023-04-02T03:46:00.215Z,5.25
2023-04-02T03:48:34.578Z,5.22
2023-04-02T03:51:17.993Z,5.57
2023-04-02T03:53:45.457Z,5.53
2023-04-02T03:56:28.072Z,5.46
2023-04-02T03:59:19.680Z,5.40
2023-04-02T04:01:58.349Z,5.49
2023-04-02T04:04:29.008Z,5.14
2023-04-02T04:06:57.150Z,5.16
2023-04-02T04:09:26.578Z,5.41
2023-04-02T04:12:02.120Z,5.33
2023-04-02T04:14:32.566Z,5.34
2023-04-02T04:17:30.442Z,5.33
2023-04-02T04:20:07.998Z,4.99
2023-04-02T04:22:34.756Z,5.39
2023-04-02T04:25:07.269Z,5.31
2023-04-02T04:27:53.636Z,5.22
2023-04-02T04:30:37.446Z,5.17
2023-04-02T04:33:14.371Z,4.88
2023-04-02T04:35:48.675Z,4.98
2023-04-02T04:38:35.278Z,5.29
2023-04-02T04:41:13.118Z,4.90
2023-04-02T04:43:47.864Z,5.23
2023-04-02T04:46:28.397Z,5.13
2023-04-02T04:49:11.721Z,4.86
2023-04-02T04:51:53.236Z,4.92
2023-04-02T04:54:20.257Z,5.16
2023-04-02T04:57:01.394Z,4.79
2023-04-02T04:59:39.976Z,5.06
2023-04-02T05:02:10.647Z,5.16
2023-04-02T05:04:43.863Z,4.97
2023-04-02T05:07:25.562Z,4.90
2023-04-02T05:10:07.796Z,4.82
2023-04-02T05:13:02.786Z,4.78
2023-04-02T05:15:35.385Z,4.81
2023-04-02T05:18:11.313Z,4.79
2023-04-02T05:20:52.598Z,4.72
2023-04-02T05:23:26.733Z,4.49
2023-04-02T05:26:13.026Z,4.77
2023-04-02T05:28:47.132Z,4.69
2023-04-02T05:31:23.890Z,4.49
2023-04-02T05:33:50.432Z,4.65
2023-04-02T05:36:24.492Z,4.60
2023-04-02T05:38:52.341Z,4.61
2023-04-02T05:41:36.555Z,4.67
2023-04-02T05:44:14.075Z,4.52
2023-04-02T05:47:11.104Z,4.52
2023-04-02T05:50:09.283Z,4.51
2023-04-02T05:52:49.776Z,4.61
2023-04-02T05:55:27.145Z,4.59
2023-04-02T05:58:25.605Z,4.60
2023-04-02T06:00:57.086Z,4.52
2023-04-02T06:03:43.392Z,4.73
2023-04-02T06:06:28.969Z,4.68
2023-04-02T06:09:09.870Z,4.57
2023-04-02T06:11:45.007Z,4.63
2023-04-02T06:14:14.184Z,4.66
2023-04-02T06:16:41.358Z,4.69
2023-04-02T06:19:15.913Z,4.48
2023-04-02T06:21:47.548Z,4.35
2023-04-02T06:24:18.857Z,4.59
2023-04-02T06:26:54.957Z,4.65
2023-04-02T06:29:36.944Z,4.66
2023-04-02T06:32:06.246Z,4.47
2023-04-02T06:34:33.555Z,4.57
2023-04-02T06:37:04.613Z,4.25
2023-04-02T06:39:31.326Z,4.51
2023-04-02T06:42:13.437Z,4.47
2023-04-02T06:44:40.695Z,4.09
2023-04-02T06:47:18.322Z,4.46
2023-04-02T06:49:53.742Z,4.25
2023-04-02T06:52:28.340Z,4.53
2023-04-02T06:54:54.909Z,4.54
2023-04-02T06:57:21.491Z,4.67
2023-04-02T06:59:48.074Z,4.53
2023-04-02T07:02:25.221Z,4.34
2023-04-02T07:04:52.429Z,4.66
2023-04-02T07:07:18.903Z,4.26
2023-04-02T07:09:45.414Z,4.27
2023-04-02T07:12:15.031Z,4.32
2023-04-02T07:14:41.525Z,4.45
2023-04-02T07:17:16.027Z,4.09
2023-04-02T07:19:42.486Z,4.38
2023-04-02T07:22:08.975Z,4.14
2023-04-02T07:24:35.420Z,4.50
2023-04-02T07:27:01.992Z,4.43
2023-04-02T07:29:28.653Z,4.33
2023-04-02T07:31:55.169Z,4.40
2023-04-02T07:34:21.754Z,4.69
2023-04-02T07:36:48.249Z,4.54
2023-04-02T07:39:14.919Z,4.32
2023-04-02T07:41:52.769Z,4.69
2023-04-02T07:44:19.286Z,4.53
2023-04-02T07:46:45.811Z,4.46
2023-04-02T07:49:12.394Z,4.25
2023-04-02T07:51:39.045Z,4.52
2023-04-02T07:54:05.582Z,4.50
2023-04-02T07:56:32.079Z,4.43
2023-04-02T07:58:58.490Z,4.59
2023-04-02T08:01:27.574Z,4.70
2023-04-02T08:03:55.115Z,4.57
2023-04-02T08:06:22.051Z,4.48
2023-04-02T08:08:48.834Z,4.80
2023-04-02T08:11:15.290Z,4.49
2023-04-02T08:13:42.068Z,4.35
2023-04-02T08:16:09.986Z,4.83
2023-04-02T08:18:36.679Z,4.90
2023-04-02T08:21:07.274Z,4.77
2023-04-02T08:23:33.681Z,5.05
2023-04-02T08:26:00.149Z,4.80
2023-04-02T08:28:26.722Z,4.86
2023-04-02T08:30:53.290Z,5.03
2023-04-02T08:33:20.085Z,5.03
2023-04-02T08:35:50.542Z,4.98
2023-04-02T08:38:19.145Z,4.83
2023-04-02T08:40:49.937Z,4.85
2023-04-02T08:43:38.077Z,5.07
2023-04-02T08:46:08.150Z,5.24
2023-04-02T08:48:40.186Z,5.26
2023-04-02T08:51:15.342Z,4.94
2023-04-02T08:53:41.980Z,5.09
2023-04-02T08:56:26.560Z,4.87
2023-04-02T08:58:53.119Z,5.19
2023-04-02T09:01:31.848Z,4.49
2023-04-02T09:03:59.487Z,4.96
2023-04-02T09:06:26.438Z,5.03
2023-04-02T09:08:54.261Z,4.86
2023-04-02T09:11:27.521Z,4.72
2023-04-02T09:13:58.924Z,4.73
2023-04-02T09:16:49.458Z,4.79
2023-04-02T09:19:20.515Z,5.03
2023-04-02T09:21:57.877Z,4.86
2023-04-02T09:24:24.390Z,4.90
2023-04-02T09:26:50.872Z,4.76
2023-04-02T09:29:26.184Z,4.76
2023-04-02T09:32:19.590Z,4.63
2023-04-02T09:34:46.331Z,4.82
2023-04-02T09:37:22.401Z,4.80
2023-04-02T09:39:50.113Z,4.61
2023-04-02T09:42:32.949Z,4.54
2023-04-02T09:45:22.880Z,5.07
2023-04-02T09:47:51.443Z,5.30
2023-04-02T09:50:20.883Z,5.03
2023-04-02T09:52:48.528Z,5.52
2023-04-02T09:55:14.938Z,4.40
2023-04-02T09:57:42.151Z,4.98
2023-04-02T10:00:25.255Z,4.73
2023-04-02T10:03:01.359Z,4.78
2023-04-02T10:05:39.800Z,4.98
2023-04-02T10:08:34.015Z,4.81
2023-04-02T10:11:03.040Z,4.59
2023-04-02T10:14:00.437Z,5.10
2023-04-02T10:16:48.275Z,4.67
2023-04-02T10:19:26.764Z,4.59
2023-04-02T10:21:55.314Z,4.78
2023-04-02T10:24:21.950Z,4.91
2023-04-02T10:26:55.283Z,4.92
2023-04-02T10:29:36.970Z,4.64
2023-04-02T10:32:24.946Z,5.04
2023-04-02T10:34:58.611Z,4.71
2023-04-02T10:37:44.490Z,4.53
2023-04-02T10:40:15.282Z,4.49
2023-04-02T10:42:53.677Z,4.53
2023-04-02T10:45:42.294Z,4.98
2023-04-02T10:48:20.567Z,4.90
2023-04-02T10:51:19.210Z,4.73
2023-04-02T10:53:57.727Z,5.35
2023-04-02T10:56:26.458Z,5.41
2023-04-02T10:58:59.395Z,4.93
2023-04-02T11:01:29.306Z,4.70
2023-04-02T11:04:02.435Z,4.66
2023-04-02T11:06:38.348Z,4.53
2023-04-02T11:09:11.795Z,4.54
2023-04-02T11:11:48.738Z,4.91
2023-04-02T11:14:25.532Z,5.23
2023-04-02T11:16:54.308Z,4.99
2023-04-02T11:19:24.414Z,4.89
2023-04-02T11:22:06.665Z,5.20
2023-04-02T11:24:43.049Z,5.07
2023-04-02T11:27:09.495Z,5.34
2023-04-02T11:29:37.318Z,4.91
2023-04-02T11:32:37.659Z,4.92
2023-04-02T11:35:25.189Z,4.92
2023-04-02T11:37:52.661Z,5.01
2023-04-02T11:40:43.852Z,4.46
2023-04-02T11:43:47.683Z,4.39
2023-04-02T11:46:20.358Z,5.10
2023-04-02T11:48:46.925Z,4.14
2023-04-02T11:51:22.688Z,4.94
2023-04-02T11:53:51.656Z,5.18
2023-04-02T11:56:32.508Z,5.26
2023-04-02T11:59:17.597Z,5.23
2023-04-02T12:01:50.247Z,5.09
2023-04-02T12:04:35.158Z,5.36
2023-04-02T12:07:29.024Z,5.21
2023-04-02T12:10:16.777Z,5.14
2023-04-02T12:12:44.163Z,4.81
2023-04-02T12:15:34.364Z,4.25
2023-04-02T12:18:15.581Z,4.87
2023-04-02T12:20:46.996Z,5.14
2023-04-02T12:23:35.457Z,5.73
2023-04-02T12:26:04.752Z,6.62
2023-04-02T12:28:31.304Z,6.28
2023-04-02T12:31:13.955Z,5.56
2023-04-02T12:33:41.519Z,6.71
2023-04-02T12:36:13.871Z,6.28
2023-04-02T12:38:53.274Z,6.39
2023-04-02T12:41:27.602Z,7.40
2023-04-02T12:44:12.960Z,7.90
2023-04-02T12:46:40.228Z,7.92
2023-04-02T12:49:31.739Z,8.24
2023-04-02T12:52:01.522Z,7.94
2023-04-02T12:54:29.186Z,8.22
2023-04-02T12:57:27.800Z,8.30
2023-04-02T12:59:57.606Z,9.10
2023-04-02T13:02:29.577Z,8.91
2023-04-02T13:04:58.404Z,9.02
2023-04-02T13:07:27.167Z,9.51
2023-04-02T13:09:55.913Z,9.91
2023-04-02T13:12:37.117Z,9.35
2023-04-02T13:15:17.970Z,8.96
2023-04-02T13:17:47.640Z,10.02
2023-04-02T13:20:40.417Z,9.06
2023-04-02T13:23:28.665Z,9.97
2023-04-02T13:26:20.122Z,10.59
2023-04-02T13:29:03.066Z,10.12
2023-04-02T13:31:31.123Z,9.96
2023-04-02T13:33:58.192Z,9.69
2023-04-02T13:36:25.044Z,10.38
2023-04-02T13:38:51.526Z,10.94
2023-04-02T13:41:33.597Z,9.79
2023-04-02T13:44:02.421Z,10.22
2023-04-02T13:46:31.249Z,10.28
2023-04-02T13:48:58.954Z,10.95
2023-04-02T13:51:36.566Z,10.01
2023-04-02T13:54:07.327Z,9.85
2023-04-02T13:56:33.849Z,10.59
2023-04-02T13:59:00.450Z,10.64
2023-04-02T14:01:27.075Z,11.38
2023-04-02T14:03:54.728Z,11.17
2023-04-02T14:06:57.228Z,9.93
2023-04-02T14:09:42.291Z,9.67
2023-04-02T14:12:34.237Z,9.94
2023-04-02T14:15:25.551Z,11.00
2023-04-02T14:18:15.885Z,10.49
2023-04-02T14:20:55.168Z,10.84
2023-04-02T14:23:45.025Z,11.12
2023-04-02T14:26:39.885Z,12.44
2023-04-02T14:29:33.388Z,10.31
2023-04-02T14:32:25.847Z,11.11
2023-04-02T14:35:21.498Z,11.11
2023-04-02T14:37:56.985Z,11.37
2023-04-02T14:40:33.919Z,11.44
2023-04-02T14:43:02.101Z,12.19
2023-04-02T14:45:40.139Z,12.70
2023-04-02T14:48:22.092Z,11.44
2023-04-02T14:50:51.682Z,12.48
2023-04-02T14:53:38.624Z,11.87
2023-04-02T14:56:07.727Z,12.05
2023-04-02T14:58:48.256Z,10.66
2023-04-02T15:01:21.980Z,10.55
2023-04-02T15:03:58.386Z,9.31
2023-04-02T15:06:30.870Z,11.89
2023-04-02T15:09:22.537Z,11.14
2023-04-02T15:11:52.846Z,10.27
2023-04-02T15:14:28.300Z,9.52
2023-04-02T15:16:54.951Z,9.97
2023-04-02T15:19:21.418Z,10.42
2023-04-02T15:22:15.259Z,11.25
2023-04-02T15:25:00.614Z,11.49
2023-04-02T15:27:58.219Z,10.94
2023-04-02T15:30:29.614Z,10.55
2023-04-02T15:33:18.637Z,10.31
2023-04-02T15:35:52.275Z,10.81
2023-04-02T15:38:30.092Z,10.75
2023-04-02T15:41:41.228Z,10.54
2023-04-02T15:44:15.213Z,11.32
2023-04-02T15:46:41.833Z,11.46
2023-04-02T15:49:26.878Z,11.79
2023-04-02T15:52:04.364Z,11.15
2023-04-02T15:54:43.822Z,11.18
2023-04-02T15:57:19.694Z,10.82
2023-04-02T16:00:11.176Z,11.12
2023-04-02T16:02:56.742Z,9.92
2023-04-02T16:05:49.313Z,10.09
2023-04-02T16:08:34.131Z,9.55
2023-04-02T16:11:00.763Z,9.91
2023-04-02T16:13:35.899Z,9.31
2023-04-02T16:16:21.335Z,9.70
2023-04-02T16:19:17.233Z,9.08
2023-04-02T16:21:54.282Z,9.82
2023-04-02T16:24:20.723Z,9.78
2023-04-02T16:26:57.732Z,10.05
2023-04-02T16:29:54.332Z,9.38
2023-04-02T16:32:49.788Z,9.39
2023-04-02T16:35:50.213Z,9.78
2023-04-02T16:38:52.441Z,9.38
2023-04-02T16:41:28.137Z,9.38
2023-04-02T16:44:19.468Z,9.60
2023-04-02T16:46:52.277Z,9.00
2023-04-02T16:49:18.794Z,9.22
2023-04-02T16:51:48.137Z,8.67
2023-04-02T16:54:29.624Z,9.29
2023-04-02T16:57:17.340Z,9.20
2023-04-02T16:59:55.766Z,9.00
2023-04-02T17:02:46.526Z,9.11
2023-04-02T17:05:22.333Z,8.85
2023-04-02T17:08:03.143Z,8.96
2023-04-02T17:10:31.120Z,9.14
2023-04-02T17:13:21.734Z,8.64
2023-04-02T17:15:59.912Z,8.48
2023-04-02T17:18:26.611Z,8.14
2023-04-02T17:21:02.381Z,8.81
2023-04-02T17:23:31.128Z,8.28
2023-04-02T17:26:01.963Z,8.40
2023-04-02T17:28:32.116Z,8.48
2023-04-02T17:31:00.870Z,8.49
2023-04-02T17:33:27.649Z,8.36
2023-04-02T17:36:00.243Z,8.17
2023-04-02T17:38:41.092Z,8.23
2023-04-02T17:41:28.750Z,7.92
2023-04-02T17:44:14.542Z,7.85
2023-04-02T17:46:49.902Z,8.06
2023-04-02T17:50:06.969Z,8.02
2023-04-02T17:52:39.514Z,8.03
2023-04-02T17:55:27.656Z,8.04
2023-04-02T17:58:09.223Z,7.78
2023-04-02T18:00:52.334Z,7.67
2023-04-02T18:03:30.958Z,7.84
2023-04-02T18:06:15.006Z,7.51
2023-04-02T18:08:49.271Z,7.34
2023-04-02T18:11:54.407Z,7.49
2023-04-02T18:15:05.816Z,7.48
2023-04-02T18:17:46.298Z,7.23
2023-04-02T18:20:53.517Z,7.37
2023-04-02T18:23:37.881Z,7.61
2023-04-02T18:26:22.405Z,7.29
2023-04-02T18:29:14.695Z,7.29
2023-04-02T18:31:54.616Z,7.11
2023-04-02T18:34:53.267Z,7.12
2023-04-02T18:37:25.504Z,6.86
2023-04-02T18:40:00.935Z,6.49
2023-04-02T18:42:46.277Z,6.82
2023-04-02T18:45:57.473Z,6.53
2023-04-02T18:48:42.455Z,6.51
2023-04-02T18:51:33.919Z,6.43
2023-04-02T18:54:09.186Z,6.30
2023-04-02T18:56:39.254Z,6.17
2023-04-02T18:59:23.209Z,6.20
2023-04-02T19:01:53.691Z,6.31
2023-04-02T19:04:28.904Z,6.36
2023-04-02T19:07:03.705Z,6.30
2023-04-02T19:09:41.168Z,6.12
2023-04-02T19:12:16.059Z,5.95
2023-04-02T19:14:42.543Z,6.41
2023-04-02T19:17:56.670Z,6.21
2023-04-02T19:20:32.680Z,6.11
2023-04-02T19:23:05.099Z,6.05
2023-04-02T19:26:01.394Z,5.96
2023-04-02T19:28:37.106Z,5.87
2023-04-02T19:31:14.539Z,5.82
2023-04-02T19:33:50.013Z,5.51
2023-04-02T19:37:10.091Z,5.57
2023-04-02T19:39:55.364Z,5.70
2023-04-02T19:42:39.192Z,5.76
2023-04-02T19:45:17.932Z,5.48
2023-04-02T19:47:44.406Z,5.68
2023-04-02T19:50:10.983Z,5.66
2023-04-02T19:52:37.453Z,5.63
2023-04-02T19:55:04.335Z,5.67
2023-04-02T19:57:30.805Z,5.59
2023-04-02T19:59:57.370Z,5.49
2023-04-02T20:02:23.841Z,5.39
2023-04-02T20:04:50.388Z,5.31
2023-04-02T20:07:16.885Z,5.63
2023-04-02T20:09:43.408Z,5.49
2023-04-02T20:12:10.001Z,5.32
2023-04-02T20:14:36.510Z,5.08
2023-04-02T20:17:03.125Z,4.93
2023-04-02T20:19:29.819Z,5.21
2023-04-02T20:21:56.286Z,5.01
2023-04-02T20:24:22.821Z,4.52
2023-04-02T20:26:49.310Z,4.71
2023-04-02T20:29:15.891Z,4.93
2023-04-02T20:31:42.671Z,4.86
2023-04-02T20:34:09.975Z,5.02
2023-04-02T20:36:36.526Z,5.11
2023-04-02T20:39:03.319Z,5.04
2023-04-02T20:41:29.777Z,4.97
2023-04-02T20:43:56.337Z,5.27
2023-04-02T20:46:22.913Z,5.32
2023-04-02T20:48:49.439Z,5.57
2023-04-02T20:51:16.247Z,5.62
2023-04-02T20:53:42.992Z,5.54
2023-04-02T20:56:14.786Z,5.38
2023-04-02T20:58:42.486Z,5.15
2023-04-02T21:01:14.723Z,5.03
2023-04-02T21:03:41.459Z,4.97
2023-04-02T21:06:16.079Z,4.96
2023-04-02T21:08:42.902Z,5.13
2023-04-02T21:11:10.008Z,5.18
2023-04-02T21:13:37.360Z,4.99
2023-04-02T21:16:05.803Z,4.98
2023-04-02T21:18:32.700Z,4.70
2023-04-02T21:21:01.511Z,4.52
2023-04-02T21:23:29.062Z,4.00
2023-04-02T21:25:57.492Z,4.34
2023-04-02T21:28:24.052Z,4.53
2023-04-02T21:30:50.701Z,4.55
2023-04-02T21:33:17.476Z,4.71
2023-04-02T21:35:44.197Z,4.67
2023-04-02T21:38:10.696Z,4.76
2023-04-02T21:40:37.154Z,4.91
2023-04-02T21:43:03.682Z,5.01
2023-04-02T21:45:30.179Z,4.77
2023-04-02T21:47:56.668Z,4.87
2023-04-02T21:50:23.209Z,5.08
2023-04-02T21:52:49.887Z,4.79
2023-04-02T21:55:16.655Z,5.16
2023-04-02T21:57:43.257Z,4.76
2023-04-02T22:00:10.385Z,5.09
2023-04-02T22:02:36.941Z,5.01
2023-04-02T22:05:03.958Z,4.70
2023-04-02T22:07:30.494Z,4.21
2023-04-02T22:09:56.933Z,4.39
2023-04-02T22:12:23.524Z,4.72
2023-04-02T22:14:50.002Z,4.81
2023-04-02T22:17:16.412Z,4.66
2023-04-02T22:19:43.093Z,4.67
2023-04-02T22:22:09.500Z,4.70
2023-04-02T22:24:35.991Z,4.60
2023-04-02T22:27:02.459Z,4.63
2023-04-02T22:29:28.882Z,4.60
2023-04-02T22:31:55.303Z,4.52
2023-04-02T22:34:21.861Z,4.53
2023-04-02T22:36:48.330Z,3.67
2023-04-02T22:39:15.818Z,4.25
2023-04-02T22:41:42.311Z,4.13
2023-04-02T22:44:14.121Z,4.33
2023-04-02T22:46:40.664Z,4.35
2023-04-02T22:49:07.233Z,4.10
2023-04-02T22:51:33.664Z,4.11
2023-04-02T22:54:00.108Z,3.90
2023-04-02T22:56:28.910Z,3.60
2023-04-02T22:58:55.540Z,3.86
2023-04-02T23:01:25.916Z,4.07
2023-04-02T23:03:55.773Z,4.08
2023-04-02T23:06:23.019Z,4.00
2023-04-02T23:08:49.674Z,3.62
2023-04-02T23:11:18.923Z,3.94
2023-04-02T23:13:48.051Z,3.98
2023-04-02T23:16:15.729Z,3.77
2023-04-02T23:18:44.025Z,4.04
2023-04-02T23:21:10.691Z,3.93
2023-04-02T23:23:37.681Z,3.98
2023-04-02T23:26:11.813Z,3.80
2023-04-02T23:28:39.791Z,3.53
2023-04-02T23:31:09.227Z,3.32
2023-04-02T23:33:35.882Z,3.73
2023-04-02T23:36:26.572Z,3.67
2023-04-02T23:38:55.191Z,3.82
2023-04-02T23:41:23.876Z,3.54
2023-04-02T23:43:50.725Z,3.46
2023-04-02T23:46:17.207Z,3.62
2023-04-02T23:48:43.637Z,3.29
2023-04-02T23:51:10.222Z,3.37
2023-04-02T23:53:37.106Z,3.18
2023-04-02T23:56:03.766Z,3.10
2023-04-02T23:58:30.291Z,3.04
